createdAt,value
2019-03-16T00:01:14.447Z,12.78
2019-03-16T00:03:45.628Z,14.15
2019-03-16T00:06:16.841Z,14.73
2019-03-16T00:08:48.145Z,13.68
2019-03-16T00:11:19.424Z,14.25
2019-03-16T00:13:50.586Z,12.73
2019-03-16T00:16:21.761Z,14.55
2019-03-16T00:18:53.120Z,12.45
2019-03-16T00:21:24.326Z,14.33
2019-03-16T00:23:55.493Z,14.00
2019-03-16T00:26:26.680Z,14.55
2019-03-16T00:28:57.505Z,12.47
2019-03-16T00:31:28.398Z,13.30
2019-03-16T00:33:59.229Z,13.43
2019-03-16T00:36:30.080Z,11.53
2019-03-16T00:39:00.913Z,12.33
2019-03-16T00:41:32.520Z,10.88
2019-03-16T00:44:03.345Z,9.93
2019-03-16T00:46:34.327Z,10.85
2019-03-16T00:49:05.195Z,10.63
2019-03-16T00:51:36.064Z,11.80
2019-03-16T00:54:06.981Z,9.40
2019-03-16T00:56:38.818Z,11.30
2019-03-16T00:59:09.750Z,11.05
2019-03-16T01:01:40.580Z,10.32
2019-03-16T01:04:11.407Z,9.88
2019-03-16T01:06:43.241Z,10.08
2019-03-16T01:09:14.087Z,10.40
2019-03-16T01:11:44.929Z,11.10
2019-03-16T01:14:15.789Z,8.55
2019-03-16T01:16:46.953Z,10.18
2019-03-16T01:19:19.052Z,10.10
2019-03-16T01:21:50.323Z,10.48
2019-03-16T01:24:21.524Z,12.23
2019-03-16T01:26:52.713Z,10.98
2019-03-16T01:29:24.040Z,11.25
2019-03-16T01:31:54.869Z,10.03
2019-03-16T01:34:25.713Z,10.08
2019-03-16T01:36:56.548Z,11.18
2019-03-16T01:39:27.361Z,12.25
2019-03-16T01:41:58.217Z,10.98
2019-03-16T01:44:29.248Z,9.55
2019-03-16T01:47:00.929Z,9.35
2019-03-16T01:49:32.069Z,9.60
2019-03-16T01:52:03.192Z,9.80
2019-03-16T01:54:34.357Z,12.37
2019-03-16T01:57:05.695Z,10.45
2019-03-16T01:59:36.814Z,9.98
2019-03-16T02:02:08.225Z,10.08
2019-03-16T02:04:39.412Z,11.38
2019-03-16T02:07:10.777Z,10.65
2019-03-16T02:09:43.077Z,8.20
2019-03-16T02:12:14.366Z,11.08
2019-03-16T02:14:45.525Z,9.73
2019-03-16T02:17:16.749Z,8.93
2019-03-16T02:19:47.933Z,10.85
2019-03-16T02:22:19.486Z,10.18
2019-03-16T02:24:50.709Z,10.20
2019-03-16T02:27:21.575Z,8.63
2019-03-16T02:29:53.396Z,11.05
2019-03-16T02:32:24.242Z,8.58
2019-03-16T02:34:55.114Z,8.05
2019-03-16T02:37:25.976Z,10.50
2019-03-16T02:39:56.777Z,9.58
2019-03-16T02:42:28.013Z,9.08
2019-03-16T02:44:59.192Z,10.90
2019-03-16T02:47:30.025Z,10.35
2019-03-16T02:50:00.927Z,9.83
2019-03-16T02:52:32.179Z,9.00
2019-03-16T02:55:03.029Z,10.00
2019-03-16T02:57:34.341Z,14.35
2019-03-16T03:00:07.714Z,10.10
2019-03-16T03:02:38.732Z,9.98
2019-03-16T03:05:10.466Z,9.48
2019-03-16T03:07:41.707Z,9.40
2019-03-16T03:10:12.738Z,9.18
2019-03-16T03:12:44.049Z,10.55
2019-03-16T03:15:15.434Z,9.18
2019-03-16T03:17:46.829Z,8.85
2019-03-16T03:20:18.112Z,8.85
2019-03-16T03:22:49.290Z,9.30
2019-03-16T03:25:20.518Z,9.18
2019-03-16T03:27:51.746Z,8.73
2019-03-16T03:30:23.047Z,8.23
2019-03-16T03:32:54.545Z,8.15
2019-03-16T03:35:29.273Z,8.23
2019-03-16T03:37:58.807Z,8.28
2019-03-16T03:40:29.718Z,8.40
2019-03-16T03:43:00.986Z,8.95
2019-03-16T03:45:32.225Z,8.40
2019-03-16T03:48:03.464Z,8.08
2019-03-16T03:50:34.330Z,7.45
2019-03-16T03:53:05.176Z,7.20
2019-03-16T03:55:36.417Z,7.85
2019-03-16T03:58:07.617Z,6.50
2019-03-16T04:00:38.881Z,7.20
2019-03-16T04:03:10.054Z,7.67
2019-03-16T04:05:42.327Z,7.60
2019-03-16T04:08:13.416Z,6.33
2019-03-16T04:10:44.709Z,6.40
2019-03-16T04:13:15.910Z,7.12
2019-03-16T04:15:47.042Z,6.28
2019-03-16T04:18:18.284Z,7.10
2019-03-16T04:20:49.486Z,7.00
2019-03-16T04:23:20.597Z,6.70
2019-03-16T04:25:51.720Z,8.25
2019-03-16T04:28:22.931Z,8.08
2019-03-16T04:30:54.102Z,6.67
2019-03-16T04:33:25.312Z,7.37
2019-03-16T04:35:56.552Z,7.75
2019-03-16T04:38:27.723Z,6.90
2019-03-16T04:40:58.919Z,6.30
2019-03-16T04:43:30.105Z,7.37
2019-03-16T04:46:01.308Z,6.25
2019-03-16T04:48:32.457Z,6.72
2019-03-16T04:51:04.618Z,6.87
2019-03-16T04:53:35.822Z,6.12
2019-03-16T04:56:07.100Z,8.28
2019-03-16T04:58:38.490Z,7.78
2019-03-16T05:01:09.757Z,7.72
2019-03-16T05:03:40.773Z,6.95
2019-03-16T05:06:13.249Z,6.08
2019-03-16T05:08:44.640Z,7.65
2019-03-16T05:11:15.901Z,6.40
2019-03-16T05:13:47.124Z,6.97
2019-03-16T05:16:18.377Z,5.92
2019-03-16T05:18:49.263Z,7.78
2019-03-16T05:21:20.305Z,6.45
2019-03-16T05:23:51.584Z,5.70
2019-03-16T05:26:22.785Z,6.55
2019-03-16T05:28:54.020Z,5.40
2019-03-16T05:31:25.177Z,6.67
2019-03-16T05:33:56.337Z,5.53
2019-03-16T05:36:27.545Z,6.80
2019-03-16T05:38:59.828Z,7.97
2019-03-16T05:41:31.085Z,8.88
2019-03-16T05:44:02.184Z,7.67
2019-03-16T05:46:33.340Z,7.33
2019-03-16T05:49:05.871Z,6.90
2019-03-16T05:51:37.071Z,6.67
2019-03-16T05:54:08.212Z,8.15
2019-03-16T05:56:39.453Z,6.62
2019-03-16T05:59:11.706Z,6.87
2019-03-16T06:01:43.281Z,8.08
2019-03-16T06:04:14.241Z,5.37
2019-03-16T06:06:45.245Z,6.50
2019-03-16T06:09:16.568Z,5.65
2019-03-16T06:11:47.853Z,7.40
2019-03-16T06:14:19.033Z,8.08
2019-03-16T06:16:50.207Z,6.47
2019-03-16T06:19:21.478Z,7.28
2019-03-16T06:21:52.582Z,6.53
2019-03-16T06:24:23.755Z,7.30
2019-03-16T06:26:54.999Z,6.08
2019-03-16T06:29:26.221Z,6.50
2019-03-16T06:31:57.329Z,6.20
2019-03-16T06:34:28.601Z,7.72
2019-03-16T06:36:59.801Z,6.40
2019-03-16T06:39:31.110Z,7.30
2019-03-16T06:42:01.973Z,7.47
2019-03-16T06:44:33.011Z,6.40
2019-03-16T06:47:04.136Z,5.92
2019-03-16T06:49:35.353Z,5.45
2019-03-16T06:52:07.521Z,6.08
2019-03-16T06:54:38.783Z,6.10
2019-03-16T06:57:09.959Z,6.30
2019-03-16T06:59:41.169Z,6.58
2019-03-16T07:02:13.401Z,7.62
2019-03-16T07:04:44.589Z,6.72
2019-03-16T07:07:15.761Z,10.10
2019-03-16T07:09:46.905Z,7.45
2019-03-16T07:12:18.070Z,6.90
2019-03-16T07:14:49.385Z,8.05
2019-03-16T07:17:20.629Z,8.63
2019-03-16T07:19:51.838Z,9.28
2019-03-16T07:22:23.904Z,9.20
2019-03-16T07:24:54.968Z,9.18
2019-03-16T07:27:26.691Z,9.78
2019-03-16T07:29:58.838Z,10.55
2019-03-16T07:32:29.916Z,9.73
2019-03-16T07:35:01.026Z,10.25
2019-03-16T07:37:32.156Z,9.18
2019-03-16T07:40:03.324Z,8.58
2019-03-16T07:42:34.604Z,9.90
2019-03-16T07:45:08.428Z,9.93
2019-03-16T07:47:39.352Z,10.43
2019-03-16T07:50:11.666Z,22.40
2019-03-16T07:52:42.830Z,14.25
2019-03-16T07:55:14.431Z,10.82
2019-03-16T07:57:45.721Z,10.70
2019-03-16T08:00:16.943Z,11.48
2019-03-16T08:02:48.245Z,11.38
2019-03-16T08:05:19.535Z,10.88
2019-03-16T08:07:50.828Z,12.13
2019-03-16T08:10:22.453Z,11.30
2019-03-16T08:12:53.755Z,11.50
2019-03-16T08:15:27.985Z,10.93
2019-03-16T08:17:57.642Z,10.68
2019-03-16T08:20:31.346Z,10.40
2019-03-16T08:23:01.695Z,11.08
2019-03-16T08:25:33.053Z,11.57
2019-03-16T08:28:05.309Z,8.60
2019-03-16T08:30:36.726Z,8.75
2019-03-16T08:33:07.965Z,8.08
2019-03-16T08:35:39.771Z,7.92
2019-03-16T08:38:11.033Z,9.03
2019-03-16T08:40:42.265Z,8.73
2019-03-16T08:43:13.441Z,9.28
2019-03-16T08:45:44.748Z,8.83
2019-03-16T08:48:22.909Z,8.05
2019-03-16T08:50:48.849Z,8.18
2019-03-16T08:53:22.801Z,8.20
2019-03-16T08:55:52.977Z,9.20
2019-03-16T08:58:24.252Z,8.50
2019-03-16T09:00:56.648Z,8.00
2019-03-16T09:03:29.224Z,6.90
2019-03-16T09:06:00.472Z,7.60
2019-03-16T09:08:31.291Z,7.42
2019-03-16T09:11:02.226Z,6.92
2019-03-16T09:13:33.124Z,7.80
2019-03-16T09:16:03.927Z,7.53
2019-03-16T09:18:34.748Z,7.97
2019-03-16T09:21:06.075Z,7.33
2019-03-16T09:23:36.919Z,6.70
2019-03-16T09:26:07.789Z,7.15
2019-03-16T09:28:39.739Z,6.03
2019-03-16T09:31:10.595Z,6.08
2019-03-16T09:33:41.420Z,5.65
2019-03-16T09:36:12.270Z,6.83
2019-03-16T09:38:43.251Z,5.70
2019-03-16T09:41:14.083Z,6.60
2019-03-16T09:43:44.988Z,5.37
2019-03-16T09:46:16.069Z,6.40
2019-03-16T09:48:46.893Z,5.95
2019-03-16T09:51:17.757Z,6.22
2019-03-16T09:53:48.585Z,6.08
2019-03-16T09:56:19.496Z,6.53
2019-03-16T09:58:50.338Z,6.05
2019-03-16T10:01:21.293Z,6.12
2019-03-16T10:03:52.127Z,5.58
2019-03-16T10:06:22.944Z,6.78
2019-03-16T10:08:53.885Z,8.50
2019-03-16T10:11:24.728Z,6.95
2019-03-16T10:13:55.593Z,6.85
2019-03-16T10:16:26.437Z,7.78
2019-03-16T10:18:57.250Z,6.75
2019-03-16T10:21:28.056Z,8.88
2019-03-16T10:23:58.865Z,8.65
2019-03-16T10:26:29.691Z,8.10
2019-03-16T10:29:00.544Z,8.15
2019-03-16T10:31:31.512Z,8.48
2019-03-16T10:34:02.341Z,7.53
2019-03-16T10:36:33.220Z,8.60
2019-03-16T10:39:04.618Z,8.23
2019-03-16T10:41:35.517Z,9.88
2019-03-16T10:44:07.429Z,12.43
2019-03-16T10:46:38.652Z,15.80
2019-03-16T10:49:09.493Z,17.40
2019-03-16T10:51:41.003Z,17.50
2019-03-16T10:54:12.531Z,15.38
2019-03-16T10:56:44.369Z,15.23
2019-03-16T10:59:15.177Z,13.00
2019-03-16T11:01:46.036Z,10.95
2019-03-16T11:04:16.853Z,8.78
2019-03-16T11:06:47.680Z,7.53
2019-03-16T11:09:18.491Z,6.33
2019-03-16T11:11:49.328Z,6.45
2019-03-16T11:14:20.444Z,6.90
2019-03-16T11:16:51.271Z,6.75
2019-03-16T11:19:22.081Z,7.47
2019-03-16T11:21:53.023Z,8.60
2019-03-16T11:24:24.840Z,12.98
2019-03-16T11:26:55.688Z,10.60
2019-03-16T11:29:26.556Z,9.90
2019-03-16T11:31:57.380Z,10.63
2019-03-16T11:34:28.246Z,28.67
2019-03-16T11:36:59.120Z,23.10
2019-03-16T11:39:32.085Z,25.37
2019-03-16T11:42:02.485Z,30.57
2019-03-16T11:44:33.418Z,37.67
2019-03-16T11:47:04.253Z,35.70
2019-03-16T11:49:35.089Z,28.32
2019-03-16T11:52:06.116Z,23.07
2019-03-16T11:54:36.943Z,22.05
2019-03-16T11:57:07.777Z,19.52
2019-03-16T11:59:38.587Z,17.30
2019-03-16T12:02:09.481Z,15.85
2019-03-16T12:04:40.281Z,13.25
2019-03-16T12:07:11.106Z,9.35
2019-03-16T12:09:41.938Z,8.88
2019-03-16T12:12:12.745Z,7.47
2019-03-16T12:14:43.602Z,7.53
2019-03-16T12:17:14.442Z,7.90
2019-03-16T12:19:45.299Z,7.97
2019-03-16T12:22:16.116Z,8.73
2019-03-16T12:24:46.943Z,8.75
2019-03-16T12:27:17.785Z,7.55
2019-03-16T12:29:48.585Z,8.15
2019-03-16T12:32:19.426Z,7.35
2019-03-16T12:34:50.265Z,6.40
2019-03-16T12:37:21.071Z,6.22
2019-03-16T12:39:51.919Z,6.45
2019-03-16T12:42:22.765Z,6.25
2019-03-16T12:44:53.601Z,5.97
2019-03-16T12:47:24.453Z,5.20
2019-03-16T12:49:55.286Z,5.08
2019-03-16T12:52:26.147Z,5.12
2019-03-16T12:54:56.962Z,4.42
2019-03-16T12:57:27.796Z,5.33
2019-03-16T12:59:58.613Z,5.00
2019-03-16T13:02:29.452Z,4.37
2019-03-16T13:05:00.451Z,4.45
2019-03-16T13:07:31.448Z,3.80
2019-03-16T13:10:02.268Z,3.50
2019-03-16T13:12:33.108Z,3.30
2019-03-16T13:15:04.014Z,3.12
2019-03-16T13:17:35.876Z,3.55
2019-03-16T13:20:07.341Z,3.27
2019-03-16T13:22:38.161Z,3.20
2019-03-16T13:25:10.154Z,2.72
2019-03-16T13:27:41.083Z,2.40
2019-03-16T13:30:13.337Z,3.52
2019-03-16T13:32:44.167Z,3.50
2019-03-16T13:35:15.209Z,3.62
2019-03-16T13:37:46.182Z,3.10
2019-03-16T13:40:17.038Z,2.67
2019-03-16T13:42:48.085Z,2.98
2019-03-16T13:45:18.936Z,3.17
2019-03-16T13:47:51.977Z,2.70
2019-03-16T13:50:24.095Z,2.85
2019-03-16T13:52:55.113Z,2.47
2019-03-16T13:55:26.114Z,2.50
2019-03-16T13:57:57.344Z,2.37
2019-03-16T14:00:28.237Z,2.55
2019-03-16T14:02:59.101Z,2.70
2019-03-16T14:05:30.754Z,2.25
2019-03-16T14:08:01.625Z,2.08
2019-03-16T14:10:32.859Z,2.50
2019-03-16T14:13:03.718Z,4.53
2019-03-16T14:15:35.336Z,4.05
2019-03-16T14:18:06.193Z,2.95
2019-03-16T14:20:38.402Z,2.60
2019-03-16T14:23:09.249Z,2.40
2019-03-16T14:25:41.544Z,2.12
2019-03-16T14:28:12.372Z,1.60
2019-03-16T14:30:45.280Z,1.50
2019-03-16T14:33:17.484Z,2.00
2019-03-16T14:35:48.301Z,2.10
2019-03-16T14:38:19.122Z,2.50
2019-03-16T14:40:50.000Z,2.02
2019-03-16T14:43:21.240Z,1.80
2019-03-16T14:45:53.670Z,1.80
2019-03-16T14:48:25.799Z,1.40
2019-03-16T14:50:56.929Z,1.60
2019-03-16T14:53:27.742Z,1.90
2019-03-16T14:55:58.553Z,2.17
2019-03-16T14:58:29.357Z,2.30
2019-03-16T15:01:00.392Z,2.55
2019-03-16T15:03:31.213Z,2.50
2019-03-16T15:06:03.084Z,3.00
2019-03-16T15:08:34.273Z,3.30
2019-03-16T15:11:05.360Z,3.20
2019-03-16T15:13:37.593Z,3.10
2019-03-16T15:16:08.404Z,3.27
2019-03-16T15:18:39.223Z,3.70
2019-03-16T15:21:10.030Z,3.85
2019-03-16T15:23:40.857Z,4.10
2019-03-16T15:26:11.681Z,4.40
2019-03-16T15:28:42.500Z,4.30
2019-03-16T15:31:13.295Z,4.50
2019-03-16T15:33:44.116Z,5.00
2019-03-16T15:36:14.948Z,4.47
2019-03-16T15:38:45.985Z,4.05
2019-03-16T15:41:17.120Z,4.65
2019-03-16T15:43:49.048Z,5.12
2019-03-16T15:46:20.044Z,4.60
2019-03-16T15:48:50.952Z,5.17
2019-03-16T15:51:24.117Z,5.55
2019-03-16T15:53:54.947Z,4.80
2019-03-16T15:56:27.719Z,5.45
2019-03-16T15:58:58.741Z,5.87
2019-03-16T16:01:29.557Z,6.62
2019-03-16T16:04:00.388Z,5.45
2019-03-16T16:06:31.296Z,5.10
2019-03-16T16:09:03.241Z,5.22
2019-03-16T16:11:34.031Z,5.42
2019-03-16T16:14:07.358Z,5.45
2019-03-16T16:16:38.564Z,5.75
2019-03-16T16:19:09.957Z,5.83
2019-03-16T16:21:41.573Z,6.58
2019-03-16T16:24:12.785Z,4.70
2019-03-16T16:26:43.681Z,4.45
2019-03-16T16:29:14.524Z,4.28
2019-03-16T16:31:45.323Z,3.60
2019-03-16T16:34:16.133Z,4.47
2019-03-16T16:36:47.052Z,4.47
2019-03-16T16:39:17.899Z,3.42
2019-03-16T16:41:48.717Z,3.30
2019-03-16T16:44:19.528Z,3.02
2019-03-16T16:46:50.322Z,3.27
2019-03-16T16:49:21.525Z,3.37
2019-03-16T16:51:52.733Z,3.27
2019-03-16T16:54:23.602Z,2.95
2019-03-16T16:56:54.404Z,2.80
2019-03-16T16:59:25.261Z,3.42
2019-03-16T17:01:56.057Z,2.90
2019-03-16T17:04:27.039Z,2.67
2019-03-16T17:06:58.286Z,2.60
2019-03-16T17:09:29.564Z,2.12
2019-03-16T17:12:01.028Z,2.42
2019-03-16T17:14:33.193Z,2.55
2019-03-16T17:17:04.665Z,2.10
2019-03-16T17:19:35.803Z,2.20
2019-03-16T17:22:07.009Z,2.05
2019-03-16T17:24:38.328Z,2.60
2019-03-16T17:27:09.532Z,2.90
2019-03-16T17:29:40.673Z,2.90
2019-03-16T17:32:11.592Z,2.70
2019-03-16T17:34:43.863Z,2.10
2019-03-16T17:37:15.161Z,2.08
2019-03-16T17:39:46.379Z,2.20
2019-03-16T17:42:17.934Z,2.30
2019-03-16T17:44:51.043Z,3.17
2019-03-16T17:47:22.471Z,2.52
2019-03-16T17:49:53.680Z,3.12
2019-03-16T17:52:24.508Z,3.02
2019-03-16T17:54:55.784Z,2.58
2019-03-16T17:57:26.987Z,2.55
2019-03-16T17:59:57.812Z,2.62
2019-03-16T18:02:28.913Z,3.02
2019-03-16T18:05:00.261Z,3.02
2019-03-16T18:07:31.552Z,5.62
2019-03-16T18:10:02.675Z,5.67
2019-03-16T18:12:34.544Z,6.85
2019-03-16T18:15:06.153Z,5.58
2019-03-16T18:17:37.642Z,2.83
2019-03-16T18:20:09.545Z,2.37
2019-03-16T18:22:40.732Z,1.47
2019-03-16T18:25:12.109Z,1.65
2019-03-16T18:27:43.379Z,1.82
2019-03-16T18:30:15.474Z,2.10
2019-03-16T18:32:46.289Z,2.12
2019-03-16T18:35:17.404Z,1.90
2019-03-16T18:37:48.694Z,2.15
2019-03-16T18:40:19.891Z,2.30
2019-03-16T18:42:51.479Z,1.90
2019-03-16T18:45:23.344Z,2.10
2019-03-16T18:47:54.213Z,2.42
2019-03-16T18:50:25.108Z,2.05
2019-03-16T18:52:56.232Z,2.40
2019-03-16T18:55:27.091Z,2.15
2019-03-16T18:57:57.945Z,2.80
2019-03-16T19:00:29.066Z,2.85
2019-03-16T19:02:59.912Z,2.30
2019-03-16T19:05:31.777Z,2.33
2019-03-16T19:08:03.638Z,2.10
2019-03-16T19:10:40.223Z,2.22
2019-03-16T19:13:11.213Z,2.02
2019-03-16T19:15:42.052Z,2.20
2019-03-16T19:18:12.940Z,2.22
2019-03-16T19:20:43.784Z,2.05
2019-03-16T19:23:14.629Z,2.17
2019-03-16T19:25:46.248Z,2.10
2019-03-16T19:28:18.777Z,2.33
2019-03-16T19:30:50.022Z,2.08
2019-03-16T19:33:21.568Z,2.10
2019-03-16T19:35:52.790Z,2.35
2019-03-16T19:38:23.609Z,2.90
2019-03-16T19:40:55.540Z,2.92
2019-03-16T19:43:26.750Z,2.45
2019-03-16T19:46:00.401Z,2.10
2019-03-16T19:48:30.333Z,2.00
2019-03-16T19:51:04.159Z,1.90
2019-03-16T19:53:34.284Z,2.42
2019-03-16T19:56:05.256Z,1.52
2019-03-16T19:58:36.516Z,1.80
2019-03-16T20:01:07.824Z,1.77
2019-03-16T20:03:39.655Z,1.70
2019-03-16T20:06:10.500Z,2.75
2019-03-16T20:08:41.323Z,2.50
2019-03-16T20:11:12.835Z,2.00
2019-03-16T20:13:43.661Z,1.72
2019-03-16T20:16:14.540Z,1.70
2019-03-16T20:18:45.378Z,1.82
2019-03-16T20:21:17.247Z,1.70
2019-03-16T20:23:48.164Z,1.90
2019-03-16T20:26:19.002Z,1.77
2019-03-16T20:28:49.805Z,1.60
2019-03-16T20:31:20.648Z,1.57
2019-03-16T20:33:54.838Z,2.30
2019-03-16T20:36:25.690Z,4.90
2019-03-16T20:38:56.528Z,6.50
2019-03-16T20:41:36.045Z,3.60
2019-03-16T20:44:00.161Z,4.30
2019-03-16T20:46:32.491Z,3.00
2019-03-16T20:49:03.300Z,3.83
2019-03-16T20:51:35.403Z,4.90
2019-03-16T20:54:06.863Z,5.87
2019-03-16T20:56:37.869Z,5.12
2019-03-16T20:59:08.684Z,4.47
2019-03-16T21:01:39.546Z,3.75
2019-03-16T21:04:10.343Z,2.85
2019-03-16T21:06:41.217Z,2.85
2019-03-16T21:09:12.054Z,2.55
2019-03-16T21:11:43.005Z,2.33
2019-03-16T21:14:14.842Z,2.25
2019-03-16T21:16:45.715Z,2.55
2019-03-16T21:19:16.555Z,2.37
2019-03-16T21:21:47.365Z,2.35
2019-03-16T21:24:18.538Z,1.95
2019-03-16T21:26:52.908Z,2.00
2019-03-16T21:29:21.840Z,2.02
2019-03-16T21:31:52.676Z,2.12
2019-03-16T21:34:23.478Z,2.00
2019-03-16T21:36:54.312Z,2.10
2019-03-16T21:39:25.112Z,1.95
2019-03-16T21:41:55.938Z,1.87
2019-03-16T21:44:26.839Z,1.80
2019-03-16T21:46:57.771Z,1.65
2019-03-16T21:49:30.040Z,1.50
2019-03-16T21:52:02.826Z,1.65
2019-03-16T21:54:33.317Z,1.80
2019-03-16T21:57:05.460Z,1.82
2019-03-16T21:59:36.345Z,2.00
2019-03-16T22:02:07.609Z,2.10
2019-03-16T22:04:38.412Z,1.90
2019-03-16T22:07:09.278Z,2.08
2019-03-16T22:09:40.140Z,1.67
2019-03-16T22:12:11.757Z,2.10
2019-03-16T22:14:42.556Z,2.05
2019-03-16T22:17:13.381Z,1.85
2019-03-16T22:19:44.189Z,1.95
2019-03-16T22:22:15.026Z,2.02
2019-03-16T22:24:45.954Z,1.45
2019-03-16T22:27:16.929Z,1.67
2019-03-16T22:29:47.776Z,1.70
2019-03-16T22:32:18.616Z,1.70
2019-03-16T22:34:49.493Z,1.80
2019-03-16T22:37:20.344Z,2.42
2019-03-16T22:39:51.217Z,3.40
2019-03-16T22:42:22.225Z,2.90
2019-03-16T22:44:53.081Z,2.58
2019-03-16T22:47:23.933Z,2.50
2019-03-16T22:49:54.741Z,2.05
2019-03-16T22:52:26.421Z,2.02
2019-03-16T22:54:57.236Z,2.27
2019-03-16T22:57:28.099Z,1.72
2019-03-16T22:59:58.938Z,1.90
2019-03-16T23:02:29.910Z,1.60
2019-03-16T23:05:00.738Z,2.00
2019-03-16T23:07:32.610Z,1.95
2019-03-16T23:10:04.125Z,1.80
2019-03-16T23:12:34.952Z,1.65
2019-03-16T23:15:06.013Z,1.67
2019-03-16T23:17:37.645Z,1.55
2019-03-16T23:20:09.771Z,1.40
2019-03-16T23:22:40.609Z,2.17
2019-03-16T23:25:11.532Z,2.60
2019-03-16T23:27:43.075Z,2.42
2019-03-16T23:30:13.990Z,1.65
2019-03-16T23:32:45.871Z,1.85
2019-03-16T23:35:16.692Z,2.20
2019-03-16T23:37:47.537Z,2.00
2019-03-16T23:40:18.329Z,1.40
2019-03-16T23:42:49.144Z,1.30
2019-03-16T23:45:19.978Z,1.10
2019-03-16T23:47:50.805Z,0.95
2019-03-16T23:50:21.640Z,1.50
2019-03-16T23:52:52.478Z,1.27
2019-03-16T23:55:23.477Z,1.30
